sensor_id;sensor_type;location;lat;lon;timestamp;P1;durP1;ratioP1;P2;durP2;ratioP2
64757;SDS011;51193;45.588;5.376;2022-07-23T00:02:05;12.18;;;6.95;;
64757;SDS011;51193;45.588;5.376;2022-07-23T00:04:31;10.98;;;7.22;;
64757;SDS011;51193;45.588;5.376;2022-07-23T00:06:57;11.10;;;7.40;;
64757;SDS011;51193;45.588;5.376;2022-07-23T00:09:22;8.38;;;7.00;;
64757;SDS011;51193;45.588;5.376;2022-07-23T00:11:48;11.15;;;7.00;;
64757;SDS011;51193;45.588;5.376;2022-07-23T00:14:13;9.00;;;7.00;;
64757;SDS011;51193;45.588;5.376;2022-07-23T00:16:38;10.20;;;7.05;;
64757;SDS011;51193;45.588;5.376;2022-07-23T00:19:04;9.30;;;7.28;;
64757;SDS011;51193;45.588;5.376;2022-07-23T00:21:29;8.68;;;7.10;;
64757;SDS011;51193;45.588;5.376;2022-07-23T00:23:55;10.35;;;6.80;;
64757;SDS011;51193;45.588;5.376;2022-07-23T00:26:20;8.63;;;7.05;;
64757;SDS011;51193;45.588;5.376;2022-07-23T00:28:45;10.25;;;6.70;;
64757;SDS011;51193;45.588;5.376;2022-07-23T00:31:11;12.45;;;7.53;;
64757;SDS011;51193;45.588;5.376;2022-07-23T00:33:36;10.52;;;6.82;;
64757;SDS011;51193;45.588;5.376;2022-07-23T00:36:02;9.35;;;7.18;;
64757;SDS011;51193;45.588;5.376;2022-07-23T00:38:27;9.88;;;6.72;;
64757;SDS011;51193;45.588;5.376;2022-07-23T00:40:53;10.02;;;6.60;;
64757;SDS011;51193;45.588;5.376;2022-07-23T00:43:20;11.05;;;6.75;;
64757;SDS011;51193;45.588;5.376;2022-07-23T00:45:47;9.25;;;6.43;;
64757;SDS011;51193;45.588;5.376;2022-07-23T00:48:12;9.98;;;6.68;;
64757;SDS011;51193;45.588;5.376;2022-07-23T00:50:37;7.93;;;6.70;;
64757;SDS011;51193;45.588;5.376;2022-07-23T00:53:03;9.35;;;6.78;;
64757;SDS011;51193;45.588;5.376;2022-07-23T00:55:29;19.65;;;8.07;;
64757;SDS011;51193;45.588;5.376;2022-07-23T00:57:55;13.73;;;6.97;;
64757;SDS011;51193;45.588;5.376;2022-07-23T01:00:20;13.48;;;7.75;;
64757;SDS011;51193;45.588;5.376;2022-07-23T01:02:46;12.13;;;7.65;;
64757;SDS011;51193;45.588;5.376;2022-07-23T01:05:12;10.15;;;7.97;;
64757;SDS011;51193;45.588;5.376;2022-07-23T01:07:38;11.52;;;8.48;;
64757;SDS011;51193;45.588;5.376;2022-07-23T01:10:03;11.32;;;7.57;;
64757;SDS011;51193;45.588;5.376;2022-07-23T01:12:49;11.65;;;8.63;;
64757;SDS011;51193;45.588;5.376;2022-07-23T01:15:15;13.90;;;8.43;;
64757;SDS011;51193;45.588;5.376;2022-07-23T01:17:40;14.73;;;8.35;;
64757;SDS011;51193;45.588;5.376;2022-07-23T01:20:06;13.98;;;8.57;;
64757;SDS011;51193;45.588;5.376;2022-07-23T01:22:31;12.30;;;8.98;;
64757;SDS011;51193;45.588;5.376;2022-07-23T01:24:57;13.68;;;8.27;;
64757;SDS011;51193;45.588;5.376;2022-07-23T01:27:22;15.30;;;9.15;;
64757;SDS011;51193;45.588;5.376;2022-07-23T01:29:48;13.10;;;9.25;;
64757;SDS011;51193;45.588;5.376;2022-07-23T01:32:13;11.80;;;9.77;;
64757;SDS011;51193;45.588;5.376;2022-07-23T01:34:38;13.25;;;9.55;;
64757;SDS011;51193;45.588;5.376;2022-07-23T01:37:06;15.80;;;9.65;;
64757;SDS011;51193;45.588;5.376;2022-07-23T01:39:32;13.30;;;10.25;;
64757;SDS011;51193;45.588;5.376;2022-07-23T01:41:57;15.48;;;10.68;;
64757;SDS011;51193;45.588;5.376;2022-07-23T01:44:23;12.95;;;9.52;;
64757;SDS011;51193;45.588;5.376;2022-07-23T01:46:48;12.13;;;10.15;;
64757;SDS011;51193;45.588;5.376;2022-07-23T01:49:13;14.43;;;10.40;;
64757;SDS011;51193;45.588;5.376;2022-07-23T01:51:39;13.15;;;9.75;;
64757;SDS011;51193;45.588;5.376;2022-07-23T01:54:25;17.25;;;9.80;;
64757;SDS011;51193;45.588;5.376;2022-07-23T01:56:54;14.32;;;10.13;;
64757;SDS011;51193;45.588;5.376;2022-07-23T01:59:20;14.60;;;10.18;;
64757;SDS011;51193;45.588;5.376;2022-07-23T02:01:46;14.13;;;10.25;;
64757;SDS011;51193;45.588;5.376;2022-07-23T02:04:11;15.02;;;10.05;;
64757;SDS011;51193;45.588;5.376;2022-07-23T02:06:37;15.88;;;10.27;;
64757;SDS011;51193;45.588;5.376;2022-07-23T02:09:02;15.77;;;10.10;;
64757;SDS011;51193;45.588;5.376;2022-07-23T02:11:28;16.83;;;10.30;;
64757;SDS011;51193;45.588;5.376;2022-07-23T02:13:53;13.77;;;10.27;;
64757;SDS011;51193;45.588;5.376;2022-07-23T02:16:18;12.25;;;10.05;;
64757;SDS011;51193;45.588;5.376;2022-07-23T02:18:44;14.07;;;9.60;;
64757;SDS011;51193;45.588;5.376;2022-07-23T02:21:11;14.27;;;9.35;;
64757;SDS011;51193;45.588;5.376;2022-07-23T02:23:36;12.77;;;9.43;;
64757;SDS011;51193;45.588;5.376;2022-07-23T02:26:01;11.40;;;8.50;;
64757;SDS011;51193;45.588;5.376;2022-07-23T02:28:27;16.33;;;9.27;;
64757;SDS011;51193;45.588;5.376;2022-07-23T02:30:52;10.25;;;8.85;;
64757;SDS011;51193;45.588;5.376;2022-07-23T02:33:18;11.60;;;8.93;;
64757;SDS011;51193;45.588;5.376;2022-07-23T02:35:43;13.75;;;9.13;;
64757;SDS011;51193;45.588;5.376;2022-07-23T02:38:08;12.20;;;9.23;;
64757;SDS011;51193;45.588;5.376;2022-07-23T02:40:34;14.70;;;9.73;;
64757;SDS011;51193;45.588;5.376;2022-07-23T02:42:59;21.45;;;9.88;;
64757;SDS011;51193;45.588;5.376;2022-07-23T02:45:25;14.10;;;9.93;;
64757;SDS011;51193;45.588;5.376;2022-07-23T02:47:50;14.15;;;9.68;;
64757;SDS011;51193;45.588;5.376;2022-07-23T02:50:16;13.70;;;9.90;;
64757;SDS011;51193;45.588;5.376;2022-07-23T02:52:41;15.35;;;10.25;;
64757;SDS011;51193;45.588;5.376;2022-07-23T02:55:07;14.32;;;10.85;;
64757;SDS011;51193;45.588;5.376;2022-07-23T02:57:32;13.07;;;10.13;;
64757;SDS011;51193;45.588;5.376;2022-07-23T02:59:58;16.02;;;10.85;;
64757;SDS011;51193;45.588;5.376;2022-07-23T03:02:23;13.32;;;10.32;;
64757;SDS011;51193;45.588;5.376;2022-07-23T03:04:49;13.52;;;10.10;;
64757;SDS011;51193;45.588;5.376;2022-07-23T03:07:15;14.00;;;10.13;;
64757;SDS011;51193;45.588;5.376;2022-07-23T03:09:42;13.55;;;10.75;;
64757;SDS011;51193;45.588;5.376;2022-07-23T03:12:07;14.20;;;10.77;;
64757;SDS011;51193;45.588;5.376;2022-07-23T03:14:33;15.48;;;9.93;;
64757;SDS011;51193;45.588;5.376;2022-07-23T03:16:58;16.73;;;11.07;;
64757;SDS011;51193;45.588;5.376;2022-07-23T03:19:25;13.10;;;9.95;;
64757;SDS011;51193;45.588;5.376;2022-07-23T03:21:51;16.20;;;9.80;;
64757;SDS011;51193;45.588;5.376;2022-07-23T03:24:16;12.90;;;9.90;;
64757;SDS011;51193;45.588;5.376;2022-07-23T03:26:43;12.27;;;9.73;;
64757;SDS011;51193;45.588;5.376;2022-07-23T03:29:08;13.93;;;9.50;;
64757;SDS011;51193;45.588;5.376;2022-07-23T03:31:34;11.13;;;9.30;;
64757;SDS011;51193;45.588;5.376;2022-07-23T03:33:59;12.38;;;9.43;;
64757;SDS011;51193;45.588;5.376;2022-07-23T03:36:25;11.98;;;9.20;;
64757;SDS011;51193;45.588;5.376;2022-07-23T03:38:50;12.73;;;8.93;;
64757;SDS011;51193;45.588;5.376;2022-07-23T03:41:17;12.90;;;8.90;;
64757;SDS011;51193;45.588;5.376;2022-07-23T03:43:43;16.27;;;10.02;;
64757;SDS011;51193;45.588;5.376;2022-07-23T03:46:08;10.98;;;8.77;;
64757;SDS011;51193;45.588;5.376;2022-07-23T03:48:34;14.57;;;9.68;;
64757;SDS011;51193;45.588;5.376;2022-07-23T03:51:00;12.95;;;9.45;;
64757;SDS011;51193;45.588;5.376;2022-07-23T03:53:25;13.07;;;8.90;;
64757;SDS011;51193;45.588;5.376;2022-07-23T03:55:51;14.10;;;8.95;;
64757;SDS011;51193;45.588;5.376;2022-07-23T03:58:16;14.45;;;9.55;;
64757;SDS011;51193;45.588;5.376;2022-07-23T04:00:41;12.95;;;9.38;;
64757;SDS011;51193;45.588;5.376;2022-07-23T04:03:07;12.90;;;10.30;;
64757;SDS011;51193;45.588;5.376;2022-07-23T04:05:32;11.25;;;9.02;;
64757;SDS011;51193;45.588;5.376;2022-07-23T04:07:58;12.38;;;9.05;;
64757;SDS011;51193;45.588;5.376;2022-07-23T04:10:23;15.90;;;9.52;;
64757;SDS011;51193;45.588;5.376;2022-07-23T04:12:49;12.68;;;9.40;;
64757;SDS011;51193;45.588;5.376;2022-07-23T04:15:14;12.82;;;9.45;;
64757;SDS011;51193;45.588;5.376;2022-07-23T04:17:39;13.93;;;9.63;;
64757;SDS011;51193;45.588;5.376;2022-07-23T04:20:05;12.00;;;9.02;;
64757;SDS011;51193;45.588;5.376;2022-07-23T04:22:31;12.25;;;9.50;;
64757;SDS011;51193;45.588;5.376;2022-07-23T04:24:56;11.95;;;9.73;;
64757;SDS011;51193;45.588;5.376;2022-07-23T04:27:21;18.27;;;9.63;;
64757;SDS011;51193;45.588;5.376;2022-07-23T04:29:47;11.88;;;10.05;;
64757;SDS011;51193;45.588;5.376;2022-07-23T04:32:12;14.32;;;9.82;;
64757;SDS011;51193;45.588;5.376;2022-07-23T04:34:38;13.85;;;10.43;;
64757;SDS011;51193;45.588;5.376;2022-07-23T04:37:03;12.65;;;10.27;;
64757;SDS011;51193;45.588;5.376;2022-07-23T04:39:28;11.73;;;9.70;;
64757;SDS011;51193;45.588;5.376;2022-07-23T04:41:54;13.60;;;10.50;;
64757;SDS011;51193;45.588;5.376;2022-07-23T04:44:19;14.95;;;11.20;;
64757;SDS011;51193;45.588;5.376;2022-07-23T04:46:44;14.93;;;10.05;;
64757;SDS011;51193;45.588;5.376;2022-07-23T04:49:10;12.05;;;9.52;;
64757;SDS011;51193;45.588;5.376;2022-07-23T04:51:35;11.55;;;9.55;;
64757;SDS011;51193;45.588;5.376;2022-07-23T04:54:01;15.38;;;9.73;;
64757;SDS011;51193;45.588;5.376;2022-07-23T04:56:26;11.40;;;9.35;;
64757;SDS011;51193;45.588;5.376;2022-07-23T04:58:52;15.82;;;9.52;;
64757;SDS011;51193;45.588;5.376;2022-07-23T05:01:17;14.80;;;10.23;;
64757;SDS011;51193;45.588;5.376;2022-07-23T05:03:43;13.73;;;10.35;;
64757;SDS011;51193;45.588;5.376;2022-07-23T05:06:08;11.50;;;9.23;;
64757;SDS011;51193;45.588;5.376;2022-07-23T05:08:34;11.60;;;9.02;;
64757;SDS011;51193;45.588;5.376;2022-07-23T05:10:59;11.32;;;8.88;;
64757;SDS011;51193;45.588;5.376;2022-07-23T05:13:25;12.23;;;9.10;;
64757;SDS011;51193;45.588;5.376;2022-07-23T05:15:50;9.95;;;8.00;;
64757;SDS011;51193;45.588;5.376;2022-07-23T05:18:16;9.43;;;8.40;;
64757;SDS011;51193;45.588;5.376;2022-07-23T05:20:41;11.65;;;8.35;;
64757;SDS011;51193;45.588;5.376;2022-07-23T05:23:07;10.75;;;7.82;;
64757;SDS011;51193;45.588;5.376;2022-07-23T05:25:33;8.90;;;7.97;;
64757;SDS011;51193;45.588;5.376;2022-07-23T05:27:58;10.13;;;8.60;;
64757;SDS011;51193;45.588;5.376;2022-07-23T05:30:23;12.85;;;8.57;;
64757;SDS011;51193;45.588;5.376;2022-07-23T05:32:49;10.40;;;7.90;;
64757;SDS011;51193;45.588;5.376;2022-07-23T05:35:14;12.20;;;8.40;;
64757;SDS011;51193;45.588;5.376;2022-07-23T05:37:40;11.68;;;8.50;;
64757;SDS011;51193;45.588;5.376;2022-07-23T05:40:06;12.07;;;8.60;;
64757;SDS011;51193;45.588;5.376;2022-07-23T05:42:34;11.45;;;8.98;;
64757;SDS011;51193;45.588;5.376;2022-07-23T05:45:00;11.35;;;8.18;;
64757;SDS011;51193;45.588;5.376;2022-07-23T05:47:26;10.95;;;8.70;;
64757;SDS011;51193;45.588;5.376;2022-07-23T05:49:51;12.50;;;8.60;;
64757;SDS011;51193;45.588;5.376;2022-07-23T05:52:17;11.93;;;8.68;;
64757;SDS011;51193;45.588;5.376;2022-07-23T05:54:42;10.95;;;8.63;;
64757;SDS011;51193;45.588;5.376;2022-07-23T05:57:08;12.18;;;8.40;;
64757;SDS011;51193;45.588;5.376;2022-07-23T05:59:33;12.30;;;8.75;;
64757;SDS011;51193;45.588;5.376;2022-07-23T06:01:59;11.02;;;9.07;;
64757;SDS011;51193;45.588;5.376;2022-07-23T06:04:24;10.82;;;8.85;;
64757;SDS011;51193;45.588;5.376;2022-07-23T06:06:50;12.13;;;9.55;;
64757;SDS011;51193;45.588;5.376;2022-07-23T06:09:16;11.90;;;9.68;;
64757;SDS011;51193;45.588;5.376;2022-07-23T06:11:41;13.32;;;9.65;;
64757;SDS011;51193;45.588;5.376;2022-07-23T06:14:07;14.27;;;9.65;;
64757;SDS011;51193;45.588;5.376;2022-07-23T06:16:32;11.75;;;9.35;;
64757;SDS011;51193;45.588;5.376;2022-07-23T06:18:57;12.75;;;9.10;;
64757;SDS011;51193;45.588;5.376;2022-07-23T06:21:23;12.15;;;8.52;;
64757;SDS011;51193;45.588;5.376;2022-07-23T06:23:48;12.18;;;8.63;;
64757;SDS011;51193;45.588;5.376;2022-07-23T06:26:14;8.88;;;7.93;;
64757;SDS011;51193;45.588;5.376;2022-07-23T06:28:39;10.10;;;8.10;;
64757;SDS011;51193;45.588;5.376;2022-07-23T06:31:05;11.05;;;8.45;;
64757;SDS011;51193;45.588;5.376;2022-07-23T06:33:30;10.15;;;8.02;;
64757;SDS011;51193;45.588;5.376;2022-07-23T06:35:56;10.55;;;8.07;;
64757;SDS011;51193;45.588;5.376;2022-07-23T06:38:21;12.57;;;7.88;;
64757;SDS011;51193;45.588;5.376;2022-07-23T06:40:46;11.07;;;8.50;;
64757;SDS011;51193;45.588;5.376;2022-07-23T06:43:12;11.07;;;7.45;;
64757;SDS011;51193;45.588;5.376;2022-07-23T06:45:37;11.43;;;7.60;;
64757;SDS011;51193;45.588;5.376;2022-07-23T06:48:02;10.40;;;7.70;;
64757;SDS011;51193;45.588;5.376;2022-07-23T06:50:28;11.15;;;8.18;;
64757;SDS011;51193;45.588;5.376;2022-07-23T06:52:54;9.40;;;8.05;;
64757;SDS011;51193;45.588;5.376;2022-07-23T06:55:19;11.40;;;8.35;;
64757;SDS011;51193;45.588;5.376;2022-07-23T06:57:45;10.25;;;8.30;;
64757;SDS011;51193;45.588;5.376;2022-07-23T07:00:10;11.25;;;8.07;;
64757;SDS011;51193;45.588;5.376;2022-07-23T07:02:36;9.85;;;8.02;;
64757;SDS011;51193;45.588;5.376;2022-07-23T07:05:02;12.82;;;7.95;;
64757;SDS011;51193;45.588;5.376;2022-07-23T07:07:28;11.60;;;8.32;;
64757;SDS011;51193;45.588;5.376;2022-07-23T07:09:53;11.80;;;7.90;;
64757;SDS011;51193;45.588;5.376;2022-07-23T07:12:18;9.40;;;8.38;;
64757;SDS011;51193;45.588;5.376;2022-07-23T07:14:44;10.38;;;8.38;;
64757;SDS011;51193;45.588;5.376;2022-07-23T07:17:09;11.77;;;8.32;;
64757;SDS011;51193;45.588;5.376;2022-07-23T07:19:36;11.55;;;8.00;;
64757;SDS011;51193;45.588;5.376;2022-07-23T07:22:01;12.80;;;8.35;;
64757;SDS011;51193;45.588;5.376;2022-07-23T07:24:27;10.68;;;8.23;;
64757;SDS011;51193;45.588;5.376;2022-07-23T07:26:53;10.90;;;7.70;;
64757;SDS011;51193;45.588;5.376;2022-07-23T07:29:19;10.75;;;8.18;;
64757;SDS011;51193;45.588;5.376;2022-07-23T07:31:44;13.93;;;8.48;;
64757;SDS011;51193;45.588;5.376;2022-07-23T07:34:10;15.43;;;8.65;;
64757;SDS011;51193;45.588;5.376;2022-07-23T07:36:35;13.02;;;8.25;;
64757;SDS011;51193;45.588;5.376;2022-07-23T07:39:02;10.75;;;8.05;;
64757;SDS011;51193;45.588;5.376;2022-07-23T07:41:29;10.85;;;7.60;;
64757;SDS011;51193;45.588;5.376;2022-07-23T07:43:55;11.38;;;8.52;;
64757;SDS011;51193;45.588;5.376;2022-07-23T07:46:20;10.10;;;8.23;;
64757;SDS011;51193;45.588;5.376;2022-07-23T07:48:48;11.25;;;8.07;;
64757;SDS011;51193;45.588;5.376;2022-07-23T07:51:14;10.80;;;8.25;;
64757;SDS011;51193;45.588;5.376;2022-07-23T07:53:40;10.70;;;7.88;;
64757;SDS011;51193;45.588;5.376;2022-07-23T07:56:05;9.35;;;7.60;;
64757;SDS011;51193;45.588;5.376;2022-07-23T07:58:31;12.27;;;8.48;;
64757;SDS011;51193;45.588;5.376;2022-07-23T08:00:56;10.43;;;7.88;;
64757;SDS011;51193;45.588;5.376;2022-07-23T08:03:22;11.65;;;7.47;;
64757;SDS011;51193;45.588;5.376;2022-07-23T08:05:47;11.23;;;7.68;;
64757;SDS011;51193;45.588;5.376;2022-07-23T08:08:12;10.52;;;7.60;;
64757;SDS011;51193;45.588;5.376;2022-07-23T08:10:39;10.02;;;7.63;;
64757;SDS011;51193;45.588;5.376;2022-07-23T08:13:05;12.27;;;8.25;;
64757;SDS011;51193;45.588;5.376;2022-07-23T08:15:30;10.60;;;7.47;;
64757;SDS011;51193;45.588;5.376;2022-07-23T08:17:56;12.10;;;8.13;;
64757;SDS011;51193;45.588;5.376;2022-07-23T08:20:23;10.15;;;8.45;;
64757;SDS011;51193;45.588;5.376;2022-07-23T08:22:56;9.43;;;8.32;;
64757;SDS011;51193;45.588;5.376;2022-07-23T08:25:34;11.40;;;7.57;;
64757;SDS011;51193;45.588;5.376;2022-07-23T08:28:02;12.35;;;8.48;;
64757;SDS011;51193;45.588;5.376;2022-07-23T08:30:29;12.07;;;7.68;;
64757;SDS011;51193;45.588;5.376;2022-07-23T08:33:06;10.38;;;7.55;;
64757;SDS011;51193;45.588;5.376;2022-07-23T08:35:37;10.52;;;6.78;;
64757;SDS011;51193;45.588;5.376;2022-07-23T08:38:05;8.93;;;6.95;;
64757;SDS011;51193;45.588;5.376;2022-07-23T08:40:33;9.23;;;7.13;;
64757;SDS011;51193;45.588;5.376;2022-07-23T08:43:01;10.45;;;7.50;;
64757;SDS011;51193;45.588;5.376;2022-07-23T08:45:33;13.35;;;7.55;;
64757;SDS011;51193;45.588;5.376;2022-07-23T08:48:02;12.45;;;8.15;;
64757;SDS011;51193;45.588;5.376;2022-07-23T08:50:28;9.73;;;7.45;;
64757;SDS011;51193;45.588;5.376;2022-07-23T08:52:53;9.30;;;6.75;;
64757;SDS011;51193;45.588;5.376;2022-07-23T08:55:20;8.75;;;7.00;;
64757;SDS011;51193;45.588;5.376;2022-07-23T08:57:47;10.18;;;7.22;;
64757;SDS011;51193;45.588;5.376;2022-07-23T09:00:15;9.30;;;7.00;;
64757;SDS011;51193;45.588;5.376;2022-07-23T09:02:41;13.43;;;6.88;;
64757;SDS011;51193;45.588;5.376;2022-07-23T09:05:08;10.80;;;6.72;;
64757;SDS011;51193;45.588;5.376;2022-07-23T09:07:36;9.60;;;7.50;;
64757;SDS011;51193;45.588;5.376;2022-07-23T09:10:09;8.25;;;6.28;;
64757;SDS011;51193;45.588;5.376;2022-07-23T09:12:36;13.13;;;7.25;;
64757;SDS011;51193;45.588;5.376;2022-07-23T09:15:04;9.57;;;6.90;;
64757;SDS011;51193;45.588;5.376;2022-07-23T09:17:37;8.43;;;6.95;;
64757;SDS011;51193;45.588;5.376;2022-07-23T09:20:14;7.68;;;6.57;;
64757;SDS011;51193;45.588;5.376;2022-07-23T09:22:50;8.48;;;6.78;;
64757;SDS011;51193;45.588;5.376;2022-07-23T09:25:17;11.95;;;7.60;;
64757;SDS011;51193;45.588;5.376;2022-07-23T09:27:48;7.90;;;7.13;;
64757;SDS011;51193;45.588;5.376;2022-07-23T09:30:14;13.38;;;7.47;;
64757;SDS011;51193;45.588;5.376;2022-07-23T09:32:40;9.45;;;7.20;;
64757;SDS011;51193;45.588;5.376;2022-07-23T09:35:06;11.88;;;7.35;;
64757;SDS011;51193;45.588;5.376;2022-07-23T09:37:32;9.07;;;7.07;;
64757;SDS011;51193;45.588;5.376;2022-07-23T09:40:05;9.32;;;6.85;;
64757;SDS011;51193;45.588;5.376;2022-07-23T09:42:32;9.07;;;6.40;;
64757;SDS011;51193;45.588;5.376;2022-07-23T09:44:58;9.85;;;6.10;;
64757;SDS011;51193;45.588;5.376;2022-07-23T09:47:28;8.68;;;6.22;;
64757;SDS011;51193;45.588;5.376;2022-07-23T09:50:09;9.10;;;6.63;;
64757;SDS011;51193;45.588;5.376;2022-07-23T09:52:42;8.38;;;6.65;;
64757;SDS011;51193;45.588;5.376;2022-07-23T09:55:09;8.93;;;6.00;;
64757;SDS011;51193;45.588;5.376;2022-07-23T09:57:35;9.98;;;6.72;;
64757;SDS011;51193;45.588;5.376;2022-07-23T10:00:04;9.55;;;6.10;;
64757;SDS011;51193;45.588;5.376;2022-07-23T10:02:33;10.05;;;6.45;;
64757;SDS011;51193;45.588;5.376;2022-07-23T10:04:59;11.32;;;5.95;;
64757;SDS011;51193;45.588;5.376;2022-07-23T10:07:26;11.02;;;6.18;;
64757;SDS011;51193;45.588;5.376;2022-07-23T10:09:55;9.45;;;6.05;;
64757;SDS011;51193;45.588;5.376;2022-07-23T10:12:20;8.38;;;6.38;;
64757;SDS011;51193;45.588;5.376;2022-07-23T10:14:51;8.50;;;6.20;;
64757;SDS011;51193;45.588;5.376;2022-07-23T10:17:17;8.07;;;5.78;;
64757;SDS011;51193;45.588;5.376;2022-07-23T10:19:43;8.82;;;6.22;;
64757;SDS011;51193;45.588;5.376;2022-07-23T10:22:10;9.15;;;6.20;;
64757;SDS011;51193;45.588;5.376;2022-07-23T10:29:51;8.95;;;6.47;;
64757;SDS011;51193;45.588;5.376;2022-07-23T10:37:35;9.88;;;6.38;;
64757;SDS011;51193;45.588;5.376;2022-07-23T10:40:14;13.40;;;6.97;;
64757;SDS011;51193;45.588;5.376;2022-07-23T10:42:43;8.75;;;6.28;;
64757;SDS011;51193;45.588;5.376;2022-07-23T10:45:29;8.55;;;6.38;;
64757;SDS011;51193;45.588;5.376;2022-07-23T10:48:11;12.48;;;6.95;;
64757;SDS011;51193;45.588;5.376;2022-07-23T10:50:39;11.10;;;6.15;;
64757;SDS011;51193;45.588;5.376;2022-07-23T10:58:04;8.65;;;6.20;;
64757;SDS011;51193;45.588;5.376;2022-07-23T11:00:31;9.45;;;6.13;;
64757;SDS011;51193;45.588;5.376;2022-07-23T11:02:59;11.48;;;6.20;;
64757;SDS011;51193;45.588;5.376;2022-07-23T11:05:47;7.57;;;5.78;;
64757;SDS011;51193;45.588;5.376;2022-07-23T11:10:38;7.50;;;6.20;;
64757;SDS011;51193;45.588;5.376;2022-07-23T11:24:22;9.10;;;6.13;;
64757;SDS011;51193;45.588;5.376;2022-07-23T11:26:45;9.60;;;6.18;;
64757;SDS011;51193;45.588;5.376;2022-07-23T11:31:54;10.30;;;7.80;;
64757;SDS011;51193;45.588;5.376;2022-07-23T11:36:59;9.13;;;5.65;;
64757;SDS011;51193;45.588;5.376;2022-07-23T11:39:27;10.13;;;6.43;;
64757;SDS011;51193;45.588;5.376;2022-07-23T11:41:54;7.47;;;6.53;;
64757;SDS011;51193;45.588;5.376;2022-07-23T11:44:24;14.23;;;6.38;;
64757;SDS011;51193;45.588;5.376;2022-07-23T11:47:09;7.25;;;6.25;;
64757;SDS011;51193;45.588;5.376;2022-07-23T11:49:39;8.13;;;6.38;;
64757;SDS011;51193;45.588;5.376;2022-07-23T11:52:16;9.02;;;6.05;;
64757;SDS011;51193;45.588;5.376;2022-07-23T11:57:13;8.05;;;6.45;;
64757;SDS011;51193;45.588;5.376;2022-07-23T11:59:39;9.82;;;6.53;;
64757;SDS011;51193;45.588;5.376;2022-07-23T12:02:06;9.32;;;6.45;;
64757;SDS011;51193;45.588;5.376;2022-07-23T12:04:42;10.80;;;6.60;;
64757;SDS011;51193;45.588;5.376;2022-07-23T12:10:14;7.13;;;5.90;;
64757;SDS011;51193;45.588;5.376;2022-07-23T12:12:45;7.15;;;5.82;;
64757;SDS011;51193;45.588;5.376;2022-07-23T12:15:23;6.93;;;5.82;;
64757;SDS011;51193;45.588;5.376;2022-07-23T12:18:02;6.68;;;5.82;;
64757;SDS011;51193;45.588;5.376;2022-07-23T12:20:35;9.80;;;6.35;;
64757;SDS011;51193;45.588;5.376;2022-07-23T12:23:03;9.63;;;6.75;;
64757;SDS011;51193;45.588;5.376;2022-07-23T12:25:34;10.77;;;6.40;;
64757;SDS011;51193;45.588;5.376;2022-07-23T12:33:24;7.38;;;5.63;;
64757;SDS011;51193;45.588;5.376;2022-07-23T12:35:51;6.78;;;5.78;;
64757;SDS011;51193;45.588;5.376;2022-07-23T12:38:19;8.38;;;5.78;;
64757;SDS011;51193;45.588;5.376;2022-07-23T12:40:48;8.57;;;6.30;;
64757;SDS011;51193;45.588;5.376;2022-07-23T12:43:31;10.25;;;5.88;;
64757;SDS011;51193;45.588;5.376;2022-07-23T12:48:49;9.00;;;5.85;;
64757;SDS011;51193;45.588;5.376;2022-07-23T12:51:23;8.68;;;5.85;;
64757;SDS011;51193;45.588;5.376;2022-07-23T12:53:53;8.57;;;5.93;;
64757;SDS011;51193;45.588;5.376;2022-07-23T12:56:26;9.45;;;6.32;;
64757;SDS011;51193;45.588;5.376;2022-07-23T12:58:55;8.73;;;5.50;;
64757;SDS011;51193;45.588;5.376;2022-07-23T13:01:30;8.13;;;6.18;;
64757;SDS011;51193;45.588;5.376;2022-07-23T13:04:08;7.68;;;5.72;;
64757;SDS011;51193;45.588;5.376;2022-07-23T13:06:34;9.30;;;6.13;;
64757;SDS011;51193;45.588;5.376;2022-07-23T13:09:04;7.65;;;5.68;;
64757;SDS011;51193;45.588;5.376;2022-07-23T13:11:32;8.52;;;5.97;;
64757;SDS011;51193;45.588;5.376;2022-07-23T13:13:57;7.90;;;5.60;;
64757;SDS011;51193;45.588;5.376;2022-07-23T13:16:25;7.65;;;5.15;;
64757;SDS011;51193;45.588;5.376;2022-07-23T13:18:52;7.20;;;5.60;;
64757;SDS011;51193;45.588;5.376;2022-07-23T13:21:17;6.97;;;5.80;;
64757;SDS011;51193;45.588;5.376;2022-07-23T13:23:43;8.13;;;5.97;;
64757;SDS011;51193;45.588;5.376;2022-07-23T13:26:08;8.27;;;6.05;;
64757;SDS011;51193;45.588;5.376;2022-07-23T13:28:34;6.32;;;5.57;;
64757;SDS011;51193;45.588;5.376;2022-07-23T13:31:00;9.10;;;6.05;;
64757;SDS011;51193;45.588;5.376;2022-07-23T13:33:25;9.93;;;5.50;;
64757;SDS011;51193;45.588;5.376;2022-07-23T13:35:51;8.23;;;5.57;;
64757;SDS011;51193;45.588;5.376;2022-07-23T13:38:18;8.95;;;5.70;;
64757;SDS011;51193;45.588;5.376;2022-07-23T13:40:45;7.93;;;5.72;;
64757;SDS011;51193;45.588;5.376;2022-07-23T13:43:13;8.75;;;5.78;;
64757;SDS011;51193;45.588;5.376;2022-07-23T13:45:40;7.38;;;5.53;;
64757;SDS011;51193;45.588;5.376;2022-07-23T13:48:11;9.05;;;6.20;;
64757;SDS011;51193;45.588;5.376;2022-07-23T13:50:37;8.13;;;5.80;;
64757;SDS011;51193;45.588;5.376;2022-07-23T13:53:04;9.68;;;6.25;;
64757;SDS011;51193;45.588;5.376;2022-07-23T13:55:36;7.20;;;6.10;;
64757;SDS011;51193;45.588;5.376;2022-07-23T13:58:03;8.43;;;5.53;;
64757;SDS011;51193;45.588;5.376;2022-07-23T14:00:29;9.82;;;5.72;;
64757;SDS011;51193;45.588;5.376;2022-07-23T14:02:56;7.38;;;5.75;;
64757;SDS011;51193;45.588;5.376;2022-07-23T14:05:22;8.85;;;5.97;;
64757;SDS011;51193;45.588;5.376;2022-07-23T14:07:48;6.93;;;5.85;;
64757;SDS011;51193;45.588;5.376;2022-07-23T14:10:15;8.35;;;6.25;;
64757;SDS011;51193;45.588;5.376;2022-07-23T14:12:41;8.90;;;5.95;;
64757;SDS011;51193;45.588;5.376;2022-07-23T14:15:06;9.07;;;5.90;;
64757;SDS011;51193;45.588;5.376;2022-07-23T14:17:33;8.00;;;5.88;;
64757;SDS011;51193;45.588;5.376;2022-07-23T14:20:00;7.00;;;5.38;;
64757;SDS011;51193;45.588;5.376;2022-07-23T14:22:26;8.27;;;5.68;;
64757;SDS011;51193;45.588;5.376;2022-07-23T14:24:51;8.52;;;5.57;;
64757;SDS011;51193;45.588;5.376;2022-07-23T14:27:17;8.40;;;5.70;;
64757;SDS011;51193;45.588;5.376;2022-07-23T14:29:42;7.70;;;5.70;;
64757;SDS011;51193;45.588;5.376;2022-07-23T14:32:08;9.10;;;5.32;;
64757;SDS011;51193;45.588;5.376;2022-07-23T14:34:34;9.80;;;5.72;;
64757;SDS011;51193;45.588;5.376;2022-07-23T14:37:00;7.40;;;5.25;;
64757;SDS011;51193;45.588;5.376;2022-07-23T14:39:26;9.60;;;6.65;;
64757;SDS011;51193;45.588;5.376;2022-07-23T14:41:51;8.52;;;5.05;;
64757;SDS011;51193;45.588;5.376;2022-07-23T14:44:17;7.97;;;5.20;;
64757;SDS011;51193;45.588;5.376;2022-07-23T14:46:42;8.38;;;5.90;;
64757;SDS011;51193;45.588;5.376;2022-07-23T14:49:08;9.15;;;5.70;;
64757;SDS011;51193;45.588;5.376;2022-07-23T14:51:34;8.07;;;5.80;;
64757;SDS011;51193;45.588;5.376;2022-07-23T14:54:00;8.23;;;5.57;;
64757;SDS011;51193;45.588;5.376;2022-07-23T14:56:25;6.57;;;5.78;;
64757;SDS011;51193;45.588;5.376;2022-07-23T14:58:50;9.57;;;5.60;;
64757;SDS011;51193;45.588;5.376;2022-07-23T15:01:16;6.85;;;5.43;;
64757;SDS011;51193;45.588;5.376;2022-07-23T15:03:41;8.98;;;5.45;;
64757;SDS011;51193;45.588;5.376;2022-07-23T15:06:07;8.65;;;5.60;;
64757;SDS011;51193;45.588;5.376;2022-07-23T15:08:32;7.88;;;5.70;;
64757;SDS011;51193;45.588;5.376;2022-07-23T15:10:58;9.32;;;5.75;;
64757;SDS011;51193;45.588;5.376;2022-07-23T15:13:23;10.60;;;5.60;;
64757;SDS011;51193;45.588;5.376;2022-07-23T15:15:49;8.63;;;5.65;;
64757;SDS011;51193;45.588;5.376;2022-07-23T15:18:14;8.88;;;5.28;;
64757;SDS011;51193;45.588;5.376;2022-07-23T15:20:40;9.63;;;5.32;;
64757;SDS011;51193;45.588;5.376;2022-07-23T15:23:05;7.18;;;5.63;;
64757;SDS011;51193;45.588;5.376;2022-07-23T15:25:31;6.93;;;5.07;;